sensor_id;sensor_type;location;lat;lon;timestamp;P1;P2;P0
42002;PMS7003;27693;50.506;30.832;2023-04-15T00:00:17;8.10;7.40;5.90
42002;PMS7003;27693;50.506;30.832;2023-04-15T00:01:21;10.10;8.20;6.50
42002;PMS7003;27693;50.506;30.832;2023-04-15T00:02:24;10.10;7.50;6.90
42002;PMS7003;27693;50.506;30.832;2023-04-15T00:03:27;9.10;6.70;5.70
42002;PMS7003;27693;50.506;30.832;2023-04-15T00:04:30;8.70;7.70;6.50
42002;PMS7003;27693;50.506;30.832;2023-04-15T00:05:34;7.60;6.80;5.80
42002;PMS7003;27693;50.506;30.832;2023-04-15T00:06:37;8.80;7.40;5.90
42002;PMS7003;27693;50.506;30.832;2023-04-15T00:07:40;8.80;7.90;6.10
42002;PMS7003;27693;50.506;30.832;2023-04-15T00:08:42;7.20;5.50;4.50
42002;PMS7003;27693;50.506;30.832;2023-04-15T00:09:47;8.50;6.00;5.10
42002;PMS7003;27693;50.506;30.832;2023-04-15T00:10:50;8.73;7.91;6.09
42002;PMS7003;27693;50.506;30.832;2023-04-15T00:11:52;8.70;7.10;6.50
42002;PMS7003;27693;50.506;30.832;2023-04-15T00:12:55;10.20;6.50;5.70
42002;PMS7003;27693;50.506;30.832;2023-04-15T00:13:58;5.91;5.91;4.36
42002;PMS7003;27693;50.506;30.832;2023-04-15T00:15:01;7.60;7.00;5.90
42002;PMS7003;27693;50.506;30.832;2023-04-15T00:16:05;7.60;6.30;5.50
42002;PMS7003;27693;50.506;30.832;2023-04-15T00:17:09;7.80;7.50;6.60
42002;PMS7003;27693;50.506;30.832;2023-04-15T00:18:11;7.20;6.70;5.60
42002;PMS7003;27693;50.506;30.832;2023-04-15T00:19:14;7.20;6.10;4.70
42002;PMS7003;27693;50.506;30.832;2023-04-15T00:20:16;8.40;8.40;7.40
42002;PMS7003;27693;50.506;30.832;2023-04-15T00:21:18;8.80;8.00;6.10
42002;PMS7003;27693;50.506;30.832;2023-04-15T00:22:22;6.90;6.10;4.80
42002;PMS7003;27693;50.506;30.832;2023-04-15T00:23:25;6.73;5.45;4.00
42002;PMS7003;27693;50.506;30.832;2023-04-15T00:24:27;7.18;7.09;5.64
42002;PMS7003;27693;50.506;30.832;2023-04-15T00:25:31;6.30;6.00;5.50
42002;PMS7003;27693;50.506;30.832;2023-04-15T00:26:34;9.09;8.55;6.64
42002;PMS7003;27693;50.506;30.832;2023-04-15T00:27:37;10.30;8.20;7.10
42002;PMS7003;27693;50.506;30.832;2023-04-15T00:28:40;9.60;6.60;5.40
42002;PMS7003;27693;50.506;30.832;2023-04-15T00:29:43;9.50;8.00;6.40
42002;PMS7003;27693;50.506;30.832;2023-04-15T00:30:45;7.10;6.80;5.80
42002;PMS7003;27693;50.506;30.832;2023-04-15T00:31:48;7.90;7.90;6.10
42002;PMS7003;27693;50.506;30.832;2023-04-15T00:32:50;8.60;8.30;6.40
42002;PMS7003;27693;50.506;30.832;2023-04-15T00:33:55;7.40;7.40;6.00
42002;PMS7003;27693;50.506;30.832;2023-04-15T00:34:57;7.80;7.10;4.60
42002;PMS7003;27693;50.506;30.832;2023-04-15T00:35:59;9.30;6.50;5.30
42002;PMS7003;27693;50.506;30.832;2023-04-15T00:37:01;7.10;7.10;5.90
42002;PMS7003;27693;50.506;30.832;2023-04-15T00:38:06;8.80;7.00;5.60
42002;PMS7003;27693;50.506;30.832;2023-04-15T00:39:09;7.70;7.70;6.70
42002;PMS7003;27693;50.506;30.832;2023-04-15T00:40:12;7.70;6.90;5.40
42002;PMS7003;27693;50.506;30.832;2023-04-15T00:41:17;9.60;7.60;6.20
42002;PMS7003;27693;50.506;30.832;2023-04-15T00:42:20;9.60;7.70;6.50
42002;PMS7003;27693;50.506;30.832;2023-04-15T00:43:24;8.50;7.30;6.40
42002;PMS7003;27693;50.506;30.832;2023-04-15T00:44:27;9.30;7.90;5.90
42002;PMS7003;27693;50.506;30.832;2023-04-15T00:45:30;8.80;7.10;5.80
42002;PMS7003;27693;50.506;30.832;2023-04-15T00:46:34;8.40;7.10;6.20
42002;PMS7003;27693;50.506;30.832;2023-04-15T00:47:39;8.40;8.20;6.30
42002;PMS7003;27693;50.506;30.832;2023-04-15T00:48:43;6.80;6.00;4.80
42002;PMS7003;27693;50.506;30.832;2023-04-15T00:49:47;9.70;7.10;5.40
42002;PMS7003;27693;50.506;30.832;2023-04-15T00:50:50;8.40;6.60;5.60
42002;PMS7003;27693;50.506;30.832;2023-04-15T00:51:53;9.10;8.00;6.80
42002;PMS7003;27693;50.506;30.832;2023-04-15T00:52:56;7.10;6.70;5.80
42002;PMS7003;27693;50.506;30.832;2023-04-15T00:53:58;8.70;7.80;6.60
42002;PMS7003;27693;50.506;30.832;2023-04-15T00:55:02;11.50;9.10;6.90
42002;PMS7003;27693;50.506;30.832;2023-04-15T00:56:06;9.00;7.80;6.70
42002;PMS7003;27693;50.506;30.832;2023-04-15T00:57:09;7.80;7.60;6.10
42002;PMS7003;27693;50.506;30.832;2023-04-15T00:58:12;9.55;6.82;5.55
42002;PMS7003;27693;50.506;30.832;2023-04-15T00:59:16;9.60;7.70;7.10
42002;PMS7003;27693;50.506;30.832;2023-04-15T01:00:20;9.20;8.60;7.10
42002;PMS7003;27693;50.506;30.832;2023-04-15T01:01:24;5.60;3.40;3.00
42002;PMS7003;27693;50.506;30.832;2023-04-15T01:02:27;7.30;6.90;6.00
42002;PMS7003;27693;50.506;30.832;2023-04-15T01:03:30;8.00;7.73;6.27
42002;PMS7003;27693;50.506;30.832;2023-04-15T01:04:33;9.55;8.73;6.73
42002;PMS7003;27693;50.506;30.832;2023-04-15T01:05:39;7.50;7.40;6.10
42002;PMS7003;27693;50.506;30.832;2023-04-15T01:06:42;8.10;7.20;6.50
42002;PMS7003;27693;50.506;30.832;2023-04-15T01:07:45;8.90;8.90;7.50
42002;PMS7003;27693;50.506;30.832;2023-04-15T01:08:48;9.90;7.20;6.10
42002;PMS7003;27693;50.506;30.832;2023-04-15T01:09:51;8.50;7.90;6.80
42002;PMS7003;27693;50.506;30.832;2023-04-15T01:10:55;8.20;7.10;5.90
42002;PMS7003;27693;50.506;30.832;2023-04-15T01:11:59;7.60;7.10;5.80
42002;PMS7003;27693;50.506;30.832;2023-04-15T01:13:01;9.00;8.50;7.40
42002;PMS7003;27693;50.506;30.832;2023-04-15T01:14:04;8.00;7.60;5.60
42002;PMS7003;27693;50.506;30.832;2023-04-15T01:15:08;8.30;8.10;6.20
42002;PMS7003;27693;50.506;30.832;2023-04-15T01:16:12;9.00;8.60;6.40
42002;PMS7003;27693;50.506;30.832;2023-04-15T01:17:16;7.50;7.50;5.90
42002;PMS7003;27693;50.506;30.832;2023-04-15T01:18:19;9.09;7.45;6.45
42002;PMS7003;27693;50.506;30.832;2023-04-15T01:19:22;11.70;7.40;6.20
42002;PMS7003;27693;50.506;30.832;2023-04-15T01:20:24;11.20;8.40;7.30
42002;PMS7003;27693;50.506;30.832;2023-04-15T01:21:28;7.60;7.50;6.50
42002;PMS7003;27693;50.506;30.832;2023-04-15T01:22:31;8.60;8.60;6.50
42002;PMS7003;27693;50.506;30.832;2023-04-15T01:23:35;12.40;9.60;7.50
42002;PMS7003;27693;50.506;30.832;2023-04-15T01:24:39;9.20;8.10;6.90
42002;PMS7003;27693;50.506;30.832;2023-04-15T01:25:45;8.00;8.00;6.40
42002;PMS7003;27693;50.506;30.832;2023-04-15T01:26:48;10.80;8.60;6.90
42002;PMS7003;27693;50.506;30.832;2023-04-15T01:27:51;7.55;5.55;4.91
42002;PMS7003;27693;50.506;30.832;2023-04-15T01:28:53;8.10;6.40;5.60
42002;PMS7003;27693;50.506;30.832;2023-04-15T01:29:58;12.90;10.00;7.50
42002;PMS7003;27693;50.506;30.832;2023-04-15T01:31:12;8.60;8.00;6.60
42002;PMS7003;27693;50.506;30.832;2023-04-15T01:32:14;9.70;8.30;7.30
42002;PMS7003;27693;50.506;30.832;2023-04-15T01:33:18;8.50;7.80;6.80
42002;PMS7003;27693;50.506;30.832;2023-04-15T01:34:20;9.20;8.50;6.90
42002;PMS7003;27693;50.506;30.832;2023-04-15T01:35:23;10.20;8.90;7.10
42002;PMS7003;27693;50.506;30.832;2023-04-15T01:36:26;8.20;8.20;6.40
42002;PMS7003;27693;50.506;30.832;2023-04-15T01:37:30;11.20;10.30;8.30
42002;PMS7003;27693;50.506;30.832;2023-04-15T01:38:33;11.30;9.90;7.70
42002;PMS7003;27693;50.506;30.832;2023-04-15T01:39:37;9.00;7.50;6.00
42002;PMS7003;27693;50.506;30.832;2023-04-15T01:40:40;9.70;8.20;6.90
42002;PMS7003;27693;50.506;30.832;2023-04-15T01:41:42;13.30;9.50;7.40
42002;PMS7003;27693;50.506;30.832;2023-04-15T01:42:45;12.50;8.80;6.60
42002;PMS7003;27693;50.506;30.832;2023-04-15T01:43:49;9.30;8.40;7.30
42002;PMS7003;27693;50.506;30.832;2023-04-15T01:44:53;11.30;8.70;6.70
42002;PMS7003;27693;50.506;30.832;2023-04-15T01:45:55;11.80;8.60;6.50
42002;PMS7003;27693;50.506;30.832;2023-04-15T01:46:57;9.00;7.60;6.00
42002;PMS7003;27693;50.506;30.832;2023-04-15T01:48:01;9.60;7.50;5.60
42002;PMS7003;27693;50.506;30.832;2023-04-15T01:49:03;10.70;9.00;7.60
42002;PMS7003;27693;50.506;30.832;2023-04-15T01:50:07;10.20;8.90;7.40
42002;PMS7003;27693;50.506;30.832;2023-04-15T01:51:10;10.80;9.40;7.50
42002;PMS7003;27693;50.506;30.832;2023-04-15T01:52:14;8.40;8.20;6.40
42002;PMS7003;27693;50.506;30.832;2023-04-15T01:53:17;10.00;9.00;7.40
42002;PMS7003;27693;50.506;30.832;2023-04-15T01:54:21;8.30;8.30;7.00
42002;PMS7003;27693;50.506;30.832;2023-04-15T01:55:25;11.80;9.10;7.80
42002;PMS7003;27693;50.506;30.832;2023-04-15T01:56:28;11.20;9.80;8.00
42002;PMS7003;27693;50.506;30.832;2023-04-15T01:57:30;11.90;9.80;7.40
42002;PMS7003;27693;50.506;30.832;2023-04-15T01:58:33;9.36;8.45;7.09
42002;PMS7003;27693;50.506;30.832;2023-04-15T01:59:35;11.10;8.50;7.30
42002;PMS7003;27693;50.506;30.832;2023-04-15T02:00:38;10.90;9.70;8.40
42002;PMS7003;27693;50.506;30.832;2023-04-15T02:01:41;11.10;10.40;8.60
42002;PMS7003;27693;50.506;30.832;2023-04-15T02:02:43;10.60;10.60;8.10
42002;PMS7003;27693;50.506;30.832;2023-04-15T02:03:46;12.00;12.00;9.80
42002;PMS7003;27693;50.506;30.832;2023-04-15T02:04:49;10.90;9.80;8.40
42002;PMS7003;27693;50.506;30.832;2023-04-15T02:05:54;9.20;8.70;6.40
42002;PMS7003;27693;50.506;30.832;2023-04-15T02:06:57;9.80;9.60;7.50
42002;PMS7003;27693;50.506;30.832;2023-04-15T02:07:59;10.20;10.20;8.90
42002;PMS7003;27693;50.506;30.832;2023-04-15T02:09:02;13.10;10.70;8.60
42002;PMS7003;27693;50.506;30.832;2023-04-15T02:10:05;10.00;10.00;8.80
42002;PMS7003;27693;50.506;30.832;2023-04-15T02:11:09;13.30;9.80;8.80
42002;PMS7003;27693;50.506;30.832;2023-04-15T02:12:12;10.90;10.50;8.50
42002;PMS7003;27693;50.506;30.832;2023-04-15T02:13:14;8.70;8.00;6.60
42002;PMS7003;27693;50.506;30.832;2023-04-15T02:14:18;10.40;9.80;8.50
42002;PMS7003;27693;50.506;30.832;2023-04-15T02:15:21;14.00;12.20;9.40
42002;PMS7003;27693;50.506;30.832;2023-04-15T02:16:24;13.40;10.10;8.20
42002;PMS7003;27693;50.506;30.832;2023-04-15T02:17:26;12.90;9.70;8.60
42002;PMS7003;27693;50.506;30.832;2023-04-15T02:18:29;11.80;8.60;6.90
42002;PMS7003;27693;50.506;30.832;2023-04-15T02:19:32;12.30;10.30;8.50
42002;PMS7003;27693;50.506;30.832;2023-04-15T02:20:37;13.50;12.20;9.90
42002;PMS7003;27693;50.506;30.832;2023-04-15T02:21:40;12.45;10.45;8.55
42002;PMS7003;27693;50.506;30.832;2023-04-15T02:22:43;10.50;10.40;7.80
42002;PMS7003;27693;50.506;30.832;2023-04-15T02:23:45;13.20;8.40;6.70
42002;PMS7003;27693;50.506;30.832;2023-04-15T02:24:49;13.10;9.80;7.90
42002;PMS7003;27693;50.506;30.832;2023-04-15T02:25:52;10.90;10.10;8.50
42002;PMS7003;27693;50.506;30.832;2023-04-15T02:26:57;11.80;8.80;7.80
42002;PMS7003;27693;50.506;30.832;2023-04-15T02:27:59;12.50;10.50;8.20
42002;PMS7003;27693;50.506;30.832;2023-04-15T02:29:02;9.50;9.10;7.30
42002;PMS7003;27693;50.506;30.832;2023-04-15T02:30:05;10.60;10.60;8.80
42002;PMS7003;27693;50.506;30.832;2023-04-15T02:31:08;16.30;12.00;8.60
42002;PMS7003;27693;50.506;30.832;2023-04-15T02:32:12;12.80;10.90;8.60
42002;PMS7003;27693;50.506;30.832;2023-04-15T02:33:15;12.20;10.60;7.80
42002;PMS7003;27693;50.506;30.832;2023-04-15T02:34:17;11.30;11.30;8.90
42002;PMS7003;27693;50.506;30.832;2023-04-15T02:35:23;10.70;10.00;8.00
42002;PMS7003;27693;50.506;30.832;2023-04-15T02:36:26;14.90;11.60;9.00
42002;PMS7003;27693;50.506;30.832;2023-04-15T02:37:31;13.40;11.40;9.70
42002;PMS7003;27693;50.506;30.832;2023-04-15T02:38:36;11.60;10.30;7.70
42002;PMS7003;27693;50.506;30.832;2023-04-15T02:39:42;13.20;11.60;8.50
42002;PMS7003;27693;50.506;30.832;2023-04-15T02:40:44;12.80;10.50;8.30
42002;PMS7003;27693;50.506;30.832;2023-04-15T02:41:47;8.40;8.40;6.50
42002;PMS7003;27693;50.506;30.832;2023-04-15T02:42:54;14.20;10.20;7.80
42002;PMS7003;27693;50.506;30.832;2023-04-15T02:43:59;11.30;10.70;8.10
42002;PMS7003;27693;50.506;30.832;2023-04-15T02:45:03;13.40;10.90;8.80
42002;PMS7003;27693;50.506;30.832;2023-04-15T02:46:07;14.10;12.80;9.40
42002;PMS7003;27693;50.506;30.832;2023-04-15T02:47:12;12.60;10.60;7.50
42002;PMS7003;27693;50.506;30.832;2023-04-15T02:48:16;10.60;9.90;7.60
42002;PMS7003;27693;50.506;30.832;2023-04-15T02:49:20;11.40;10.80;8.50
42002;PMS7003;27693;50.506;30.832;2023-04-15T02:50:24;11.70;10.30;7.10
42002;PMS7003;27693;50.506;30.832;2023-04-15T02:51:29;10.27;9.09;7.18
42002;PMS7003;27693;50.506;30.832;2023-04-15T02:52:33;11.50;10.20;7.70
42002;PMS7003;27693;50.506;30.832;2023-04-15T02:53:35;14.70;11.60;9.10
42002;PMS7003;27693;50.506;30.832;2023-04-15T02:54:38;10.10;10.10;8.70
42002;PMS7003;27693;50.506;30.832;2023-04-15T02:55:40;9.40;9.40;7.10
42002;PMS7003;27693;50.506;30.832;2023-04-15T02:56:44;11.70;9.40;7.90
42002;PMS7003;27693;50.506;30.832;2023-04-15T02:57:46;13.20;10.20;8.10
42002;PMS7003;27693;50.506;30.832;2023-04-15T02:58:49;12.90;10.60;8.40
42002;PMS7003;27693;50.506;30.832;2023-04-15T02:59:52;15.10;10.70;9.10
42002;PMS7003;27693;50.506;30.832;2023-04-15T03:00:55;10.91;9.09;8.18
42002;PMS7003;27693;50.506;30.832;2023-04-15T03:01:57;11.70;11.00;8.10
42002;PMS7003;27693;50.506;30.832;2023-04-15T03:03:02;15.30;11.50;8.20
42002;PMS7003;27693;50.506;30.832;2023-04-15T03:04:06;11.80;10.40;8.70
42002;PMS7003;27693;50.506;30.832;2023-04-15T03:05:14;10.10;9.30;7.80
42002;PMS7003;27693;50.506;30.832;2023-04-15T03:06:19;11.00;10.10;8.40
42002;PMS7003;27693;50.506;30.832;2023-04-15T03:07:23;10.10;9.60;7.80
42002;PMS7003;27693;50.506;30.832;2023-04-15T03:08:27;10.00;10.00;7.50
42002;PMS7003;27693;50.506;30.832;2023-04-15T03:09:30;10.90;10.00;8.40
42002;PMS7003;27693;50.506;30.832;2023-04-15T03:10:35;14.60;11.30;9.50
42002;PMS7003;27693;50.506;30.832;2023-04-15T03:11:38;13.50;11.80;9.70
42002;PMS7003;27693;50.506;30.832;2023-04-15T03:12:43;12.70;10.10;8.20
42002;PMS7003;27693;50.506;30.832;2023-04-15T03:13:48;10.40;9.90;7.90
42002;PMS7003;27693;50.506;30.832;2023-04-15T03:14:55;13.90;11.50;8.90
42002;PMS7003;27693;50.506;30.832;2023-04-15T03:15:59;13.20;10.30;8.00
42002;PMS7003;27693;50.506;30.832;2023-04-15T03:17:02;15.50;10.50;7.90
42002;PMS7003;27693;50.506;30.832;2023-04-15T03:18:04;13.90;11.90;8.80
42002;PMS7003;27693;50.506;30.832;2023-04-15T03:19:08;10.40;8.80;7.30
42002;PMS7003;27693;50.506;30.832;2023-04-15T03:20:13;13.20;10.60;8.70
42002;PMS7003;27693;50.506;30.832;2023-04-15T03:21:16;10.60;9.10;7.10
42002;PMS7003;27693;50.506;30.832;2023-04-15T03:22:21;10.00;9.90;8.20
42002;PMS7003;27693;50.506;30.832;2023-04-15T03:23:24;11.64;10.18;8.64
42002;PMS7003;27693;50.506;30.832;2023-04-15T03:24:27;13.00;12.30;9.40
42002;PMS7003;27693;50.506;30.832;2023-04-15T03:25:31;15.10;12.30;9.60
42002;PMS7003;27693;50.506;30.832;2023-04-15T03:26:34;16.70;12.40;9.10
42002;PMS7003;27693;50.506;30.832;2023-04-15T03:27:38;12.80;11.80;9.50
42002;PMS7003;27693;50.506;30.832;2023-04-15T03:28:42;14.30;11.70;9.10
42002;PMS7003;27693;50.506;30.832;2023-04-15T03:29:47;12.20;12.20;9.00
42002;PMS7003;27693;50.506;30.832;2023-04-15T03:30:50;12.60;10.70;8.10
42002;PMS7003;27693;50.506;30.832;2023-04-15T03:31:53;14.36;11.82;9.36
42002;PMS7003;27693;50.506;30.832;2023-04-15T03:32:55;14.50;9.90;7.70
42002;PMS7003;27693;50.506;30.832;2023-04-15T03:33:57;12.70;11.00;8.70
42002;PMS7003;27693;50.506;30.832;2023-04-15T03:35:01;10.50;9.90;8.10
42002;PMS7003;27693;50.506;30.832;2023-04-15T03:36:03;13.60;11.70;8.90
42002;PMS7003;27693;50.506;30.832;2023-04-15T03:37:06;12.00;11.82;8.55
42002;PMS7003;27693;50.506;30.832;2023-04-15T03:38:09;14.10;10.00;7.40
42002;PMS7003;27693;50.506;30.832;2023-04-15T03:39:11;14.70;12.20;8.50
42002;PMS7003;27693;50.506;30.832;2023-04-15T03:40:14;16.50;12.10;9.70
42002;PMS7003;27693;50.506;30.832;2023-04-15T03:41:17;12.90;11.70;9.60
42002;PMS7003;27693;50.506;30.832;2023-04-15T03:42:19;14.20;11.70;9.00
42002;PMS7003;27693;50.506;30.832;2023-04-15T03:43:22;15.00;12.50;9.70
42002;PMS7003;27693;50.506;30.832;2023-04-15T03:44:27;10.30;9.20;8.20
42002;PMS7003;27693;50.506;30.832;2023-04-15T03:45:30;11.10;10.20;8.00
42002;PMS7003;27693;50.506;30.832;2023-04-15T03:46:32;14.50;12.00;9.00
42002;PMS7003;27693;50.506;30.832;2023-04-15T03:47:34;14.10;11.80;9.10
42002;PMS7003;27693;50.506;30.832;2023-04-15T03:48:37;15.20;11.80;9.60
42002;PMS7003;27693;50.506;30.832;2023-04-15T03:49:39;13.40;11.70;10.00
42002;PMS7003;27693;50.506;30.832;2023-04-15T03:50:42;14.80;12.40;9.70
42002;PMS7003;27693;50.506;30.832;2023-04-15T03:51:44;13.10;10.60;7.70
42002;PMS7003;27693;50.506;30.832;2023-04-15T03:52:47;11.80;10.70;8.50
42002;PMS7003;27693;50.506;30.832;2023-04-15T03:53:51;14.00;12.20;9.30
42002;PMS7003;27693;50.506;30.832;2023-04-15T03:54:53;11.80;9.50;8.00
42002;PMS7003;27693;50.506;30.832;2023-04-15T03:55:57;14.40;12.90;10.40
42002;PMS7003;27693;50.506;30.832;2023-04-15T03:57:00;12.36;11.91;9.64
42002;PMS7003;27693;50.506;30.832;2023-04-15T03:58:02;10.50;10.50;8.50
42002;PMS7003;27693;50.506;30.832;2023-04-15T03:59:05;12.70;11.20;8.90
42002;PMS7003;27693;50.506;30.832;2023-04-15T04:00:08;11.40;10.30;7.50
42002;PMS7003;27693;50.506;30.832;2023-04-15T04:01:13;15.00;11.30;9.30
42002;PMS7003;27693;50.506;30.832;2023-04-15T04:02:17;11.70;11.70;9.40
42002;PMS7003;27693;50.506;30.832;2023-04-15T04:03:19;14.00;10.90;8.90
42002;PMS7003;27693;50.506;30.832;2023-04-15T04:04:23;13.60;11.40;9.00
42002;PMS7003;27693;50.506;30.832;2023-04-15T04:05:26;14.70;12.30;9.90
42002;PMS7003;27693;50.506;30.832;2023-04-15T04:06:28;10.40;10.10;9.20
42002;PMS7003;27693;50.506;30.832;2023-04-15T04:07:30;11.30;10.30;8.90
42002;PMS7003;27693;50.506;30.832;2023-04-15T04:08:33;12.10;10.00;8.30
42002;PMS7003;27693;50.506;30.832;2023-04-15T04:09:35;9.10;9.10;7.20
42002;PMS7003;27693;50.506;30.832;2023-04-15T04:10:39;11.50;10.30;8.70
42002;PMS7003;27693;50.506;30.832;2023-04-15T04:11:42;12.60;10.70;8.80
42002;PMS7003;27693;50.506;30.832;2023-04-15T04:12:46;12.80;11.60;9.30
42002;PMS7003;27693;50.506;30.832;2023-04-15T04:13:48;10.90;9.60;8.30
42002;PMS7003;27693;50.506;30.832;2023-04-15T04:14:51;12.90;10.60;8.50
42002;PMS7003;27693;50.506;30.832;2023-04-15T04:15:53;10.40;8.40;8.00
42002;PMS7003;27693;50.506;30.832;2023-04-15T04:16:55;14.50;11.20;9.00
42002;PMS7003;27693;50.506;30.832;2023-04-15T04:17:58;14.20;13.10;9.50
42002;PMS7003;27693;50.506;30.832;2023-04-15T04:19:03;13.00;10.00;8.60
42002;PMS7003;27693;50.506;30.832;2023-04-15T04:20:06;17.40;13.00;9.40
42002;PMS7003;27693;50.506;30.832;2023-04-15T04:21:10;13.30;11.40;9.40
42002;PMS7003;27693;50.506;30.832;2023-04-15T04:22:13;14.00;10.80;9.00
42002;PMS7003;27693;50.506;30.832;2023-04-15T04:23:15;12.20;10.60;8.00
42002;PMS7003;27693;50.506;30.832;2023-04-15T04:24:17;13.20;11.30;8.80
42002;PMS7003;27693;50.506;30.832;2023-04-15T04:25:20;11.40;11.30;8.90
42002;PMS7003;27693;50.506;30.832;2023-04-15T04:26:23;8.80;8.30;6.60
42002;PMS7003;27693;50.506;30.832;2023-04-15T04:27:26;13.70;11.10;8.20
42002;PMS7003;27693;50.506;30.832;2023-04-15T04:28:28;13.20;9.40;8.40
42002;PMS7003;27693;50.506;30.832;2023-04-15T04:29:31;13.00;12.50;10.00
42002;PMS7003;27693;50.506;30.832;2023-04-15T04:30:34;14.20;13.10;9.60
42002;PMS7003;27693;50.506;30.832;2023-04-15T04:31:36;14.20;11.90;9.60
42002;PMS7003;27693;50.506;30.832;2023-04-15T04:32:40;13.50;11.30;9.30
42002;PMS7003;27693;50.506;30.832;2023-04-15T04:33:42;12.40;10.50;8.40
42002;PMS7003;27693;50.506;30.832;2023-04-15T04:34:45;13.60;11.90;9.50
42002;PMS7003;27693;50.506;30.832;2023-04-15T04:35:47;10.80;9.60;7.50
42002;PMS7003;27693;50.506;30.832;2023-04-15T04:36:50;11.50;9.90;7.30
42002;PMS7003;27693;50.506;30.832;2023-04-15T04:37:53;10.80;9.20;7.30
42002;PMS7003;27693;50.506;30.832;2023-04-15T04:38:55;13.20;11.40;8.50
42002;PMS7003;27693;50.506;30.832;2023-04-15T04:39:58;16.10;15.10;12.60
42002;PMS7003;27693;50.506;30.832;2023-04-15T04:41:00;13.36;12.82;9.09
42002;PMS7003;27693;50.506;30.832;2023-04-15T04:42:03;14.80;11.80;9.60
42002;PMS7003;27693;50.506;30.832;2023-04-15T04:43:05;15.90;14.30;11.70
42002;PMS7003;27693;50.506;30.832;2023-04-15T04:44:07;13.50;11.00;7.90
42002;PMS7003;27693;50.506;30.832;2023-04-15T04:45:13;13.80;13.20;10.20
42002;PMS7003;27693;50.506;30.832;2023-04-15T04:46:15;13.40;11.90;9.00
42002;PMS7003;27693;50.506;30.832;2023-04-15T04:47:18;13.30;10.40;8.20
42002;PMS7003;27693;50.506;30.832;2023-04-15T04:48:20;16.60;13.70;9.30
42002;PMS7003;27693;50.506;30.832;2023-04-15T04:49:23;27.20;21.80;16.80
42002;PMS7003;27693;50.506;30.832;2023-04-15T04:50:26;13.90;13.30;8.30
42002;PMS7003;27693;50.506;30.832;2023-04-15T04:51:29;13.90;11.40;8.90
42002;PMS7003;27693;50.506;30.832;2023-04-15T04:52:33;11.70;9.80;8.30
42002;PMS7003;27693;50.506;30.832;2023-04-15T04:53:35;12.50;10.00;8.30
42002;PMS7003;27693;50.506;30.832;2023-04-15T04:54:39;14.60;10.30;8.20
42002;PMS7003;27693;50.506;30.832;2023-04-15T04:55:41;7.30;6.60;4.60
42002;PMS7003;27693;50.506;30.832;2023-04-15T04:56:43;12.50;10.20;7.60
42002;PMS7003;27693;50.506;30.832;2023-04-15T04:57:46;11.70;10.00;7.80
42002;PMS7003;27693;50.506;30.832;2023-04-15T04:58:49;7.64;6.36;4.55
42002;PMS7003;27693;50.506;30.832;2023-04-15T04:59:52;9.91;8.64;6.09
42002;PMS7003;27693;50.506;30.832;2023-04-15T05:00:54;11.90;11.00;8.10
42002;PMS7003;27693;50.506;30.832;2023-04-15T05:01:57;9.00;8.10;6.80
42002;PMS7003;27693;50.506;30.832;2023-04-15T05:03:00;16.00;12.00;9.40
42002;PMS7003;27693;50.506;30.832;2023-04-15T05:04:04;12.60;10.50;7.90
42002;PMS7003;27693;50.506;30.832;2023-04-15T05:05:08;9.50;8.70;7.30
42002;PMS7003;27693;50.506;30.832;2023-04-15T05:06:13;13.30;9.90;7.70
42002;PMS7003;27693;50.506;30.832;2023-04-15T05:07:16;10.36;9.91;7.91
42002;PMS7003;27693;50.506;30.832;2023-04-15T05:08:18;9.90;9.50;7.20
42002;PMS7003;27693;50.506;30.832;2023-04-15T05:09:21;12.60;11.10;9.40
42002;PMS7003;27693;50.506;30.832;2023-04-15T05:10:24;13.00;11.40;9.20
42002;PMS7003;27693;50.506;30.832;2023-04-15T05:11:26;12.50;11.30;8.70
42002;PMS7003;27693;50.506;30.832;2023-04-15T05:12:29;11.90;10.30;7.90
42002;PMS7003;27693;50.506;30.832;2023-04-15T05:13:31;9.20;8.20;6.70
42002;PMS7003;27693;50.506;30.832;2023-04-15T05:14:33;10.60;8.00;6.40
42002;PMS7003;27693;50.506;30.832;2023-04-15T05:15:36;9.30;7.50;6.80
42002;PMS7003;27693;50.506;30.832;2023-04-15T05:16:40;11.10;9.40;7.70
42002;PMS7003;27693;50.506;30.832;2023-04-15T05:17:42;13.10;10.00;8.60
42002;PMS7003;27693;50.506;30.832;2023-04-15T05:18:46;11.00;9.00;7.40
42002;PMS7003;27693;50.506;30.832;2023-04-15T05:19:48;11.40;9.90;8.60
42002;PMS7003;27693;50.506;30.832;2023-04-15T05:20:50;10.10;9.50;7.50
42002;PMS7003;27693;50.506;30.832;2023-04-15T05:21:53;10.60;9.50;7.70
42002;PMS7003;27693;50.506;30.832;2023-04-15T05:22:55;9.40;8.60;6.80
42002;PMS7003;27693;50.506;30.832;2023-04-15T05:23:58;12.20;9.10;7.00
42002;PMS7003;27693;50.506;30.832;2023-04-15T05:25:00;11.60;8.10;7.00
42002;PMS7003;27693;50.506;30.832;2023-04-15T05:26:05;11.30;10.40;7.90
42002;PMS7003;27693;50.506;30.832;2023-04-15T05:27:07;11.00;8.80;6.70
42002;PMS7003;27693;50.506;30.832;2023-04-15T05:28:12;13.40;9.10;7.40
42002;PMS7003;27693;50.506;30.832;2023-04-15T05:29:14;13.70;10.60;8.10
42002;PMS7003;27693;50.506;30.832;2023-04-15T05:30:17;10.45;10.00;7.73
42002;PMS7003;27693;50.506;30.832;2023-04-15T05:31:20;14.60;11.50;8.40
42002;PMS7003;27693;50.506;30.832;2023-04-15T05:32:30;12.60;9.70;7.80
42002;PMS7003;27693;50.506;30.832;2023-04-15T05:33:32;11.50;11.20;8.60
42002;PMS7003;27693;50.506;30.832;2023-04-15T05:34:35;13.60;11.00;7.90
42002;PMS7003;27693;50.506;30.832;2023-04-15T05:35:38;10.82;9.73;8.00
42002;PMS7003;27693;50.506;30.832;2023-04-15T05:36:41;9.80;8.30;6.20
42002;PMS7003;27693;50.506;30.832;2023-04-15T05:37:45;12.20;11.70;9.30
42002;PMS7003;27693;50.506;30.832;2023-04-15T05:38:47;11.00;9.20;6.60
42002;PMS7003;27693;50.506;30.832;2023-04-15T05:39:49;11.60;10.40;8.40
42002;PMS7003;27693;50.506;30.832;2023-04-15T05:40:52;12.73;11.27;8.73
42002;PMS7003;27693;50.506;30.832;2023-04-15T05:41:55;9.90;9.50;8.20
42002;PMS7003;27693;50.506;30.832;2023-04-15T05:42:58;13.80;11.40;8.70
42002;PMS7003;27693;50.506;30.832;2023-04-15T05:44:01;10.09;9.36;8.00
42002;PMS7003;27693;50.506;30.832;2023-04-15T05:45:04;10.20;9.30;7.50
42002;PMS7003;27693;50.506;30.832;2023-04-15T05:46:09;12.30;11.20;8.50
42002;PMS7003;27693;50.506;30.832;2023-04-15T05:47:13;10.60;10.30;7.60
42002;PMS7003;27693;50.506;30.832;2023-04-15T05:48:15;12.00;10.60;8.80
42002;PMS7003;27693;50.506;30.832;2023-04-15T05:49:17;10.30;9.70;7.80
42002;PMS7003;27693;50.506;30.832;2023-04-15T05:50:20;12.10;11.00;9.10
42002;PMS7003;27693;50.506;30.832;2023-04-15T05:51:22;9.70;7.70;6.20
42002;PMS7003;27693;50.506;30.832;2023-04-15T05:52:24;12.40;10.80;9.20
42002;PMS7003;27693;50.506;30.832;2023-04-15T05:53:27;10.30;9.40;8.00
42002;PMS7003;27693;50.506;30.832;2023-04-15T05:54:29;7.10;6.70;5.50
42002;PMS7003;27693;50.506;30.832;2023-04-15T05:55:31;10.90;10.40;8.50
42002;PMS7003;27693;50.506;30.832;2023-04-15T05:56:34;6.70;5.40;4.50
42002;PMS7003;27693;50.506;30.832;2023-04-15T05:57:36;9.60;9.60;7.30
42002;PMS7003;27693;50.506;30.832;2023-04-15T05:58:39;9.50;8.60;7.30